sensor_id;sensor_type;location;lat;lon;timestamp;P1;durP1;ratioP1;P2;durP2;ratioP2
545;SDS011;259;53.304;9.816;2022-08-21T00:00:35;1.50;;;1.40;;
545;SDS011;259;53.304;9.816;2022-08-21T00:03:04;1.70;;;1.20;;
545;SDS011;259;53.304;9.816;2022-08-21T00:05:32;2.60;;;1.40;;
545;SDS011;259;53.304;9.816;2022-08-21T00:08:01;1.30;;;1.20;;
545;SDS011;259;53.304;9.816;2022-08-21T00:10:27;1.67;;;0.80;;
545;SDS011;259;53.304;9.816;2022-08-21T00:12:53;0.97;;;0.90;;
545;SDS011;259;53.304;9.816;2022-08-21T00:15:24;2.07;;;1.37;;
545;SDS011;259;53.304;9.816;2022-08-21T00:17:52;2.10;;;1.33;;
545;SDS011;259;53.304;9.816;2022-08-21T00:20:19;2.53;;;1.23;;
545;SDS011;259;53.304;9.816;2022-08-21T00:22:47;1.30;;;1.20;;
545;SDS011;259;53.304;9.816;2022-08-21T00:25:15;1.97;;;1.20;;
545;SDS011;259;53.304;9.816;2022-08-21T00:27:42;1.27;;;1.00;;
545;SDS011;259;53.304;9.816;2022-08-21T00:30:09;1.57;;;1.00;;
545;SDS011;259;53.304;9.816;2022-08-21T00:32:36;1.80;;;1.40;;
545;SDS011;259;53.304;9.816;2022-08-21T00:35:04;1.37;;;1.27;;
545;SDS011;259;53.304;9.816;2022-08-21T00:37:36;1.00;;;1.00;;
545;SDS011;259;53.304;9.816;2022-08-21T00:40:02;1.13;;;1.03;;
545;SDS011;259;53.304;9.816;2022-08-21T00:42:30;1.23;;;1.13;;
545;SDS011;259;53.304;9.816;2022-08-21T00:44:56;2.20;;;1.40;;
545;SDS011;259;53.304;9.816;2022-08-21T00:47:22;2.00;;;1.17;;
545;SDS011;259;53.304;9.816;2022-08-21T00:49:48;3.17;;;1.50;;
545;SDS011;259;53.304;9.816;2022-08-21T00:52:15;1.10;;;1.00;;
545;SDS011;259;53.304;9.816;2022-08-21T00:54:44;1.47;;;1.37;;
545;SDS011;259;53.304;9.816;2022-08-21T00:57:32;2.77;;;1.40;;
545;SDS011;259;53.304;9.816;2022-08-21T01:00:04;1.10;;;1.00;;
545;SDS011;259;53.304;9.816;2022-08-21T01:02:32;1.47;;;1.20;;
545;SDS011;259;53.304;9.816;2022-08-21T01:04:58;1.53;;;1.43;;
545;SDS011;259;53.304;9.816;2022-08-21T01:07:23;1.50;;;1.00;;
545;SDS011;259;53.304;9.816;2022-08-21T01:09:50;2.80;;;1.57;;
545;SDS011;259;53.304;9.816;2022-08-21T01:12:16;2.20;;;1.40;;
545;SDS011;259;53.304;9.816;2022-08-21T01:14:42;1.83;;;1.30;;
545;SDS011;259;53.304;9.816;2022-08-21T01:17:09;1.93;;;1.73;;
545;SDS011;259;53.304;9.816;2022-08-21T01:19:37;1.27;;;1.17;;
545;SDS011;259;53.304;9.816;2022-08-21T01:22:03;1.47;;;1.30;;
545;SDS011;259;53.304;9.816;2022-08-21T01:24:29;1.60;;;1.50;;
545;SDS011;259;53.304;9.816;2022-08-21T01:26:56;3.70;;;1.83;;
545;SDS011;259;53.304;9.816;2022-08-21T01:32:28;2.60;;;1.70;;
545;SDS011;259;53.304;9.816;2022-08-21T01:34:54;1.50;;;1.40;;
545;SDS011;259;53.304;9.816;2022-08-21T01:37:20;1.97;;;1.50;;
545;SDS011;259;53.304;9.816;2022-08-21T01:39:47;1.60;;;1.50;;
545;SDS011;259;53.304;9.816;2022-08-21T01:42:13;1.40;;;1.30;;
545;SDS011;259;53.304;9.816;2022-08-21T01:44:39;1.67;;;1.43;;
545;SDS011;259;53.304;9.816;2022-08-21T01:47:07;1.53;;;1.30;;
545;SDS011;259;53.304;9.816;2022-08-21T01:49:34;1.90;;;1.33;;
545;SDS011;259;53.304;9.816;2022-08-21T01:52:02;2.20;;;1.90;;
545;SDS011;259;53.304;9.816;2022-08-21T01:54:29;1.40;;;1.30;;
545;SDS011;259;53.304;9.816;2022-08-21T01:56:54;2.07;;;1.50;;
545;SDS011;259;53.304;9.816;2022-08-21T01:59:21;2.87;;;1.40;;
545;SDS011;259;53.304;9.816;2022-08-21T02:01:48;2.70;;;1.60;;
545;SDS011;259;53.304;9.816;2022-08-21T02:04:14;3.80;;;1.67;;
545;SDS011;259;53.304;9.816;2022-08-21T02:06:40;1.90;;;1.27;;
545;SDS011;259;53.304;9.816;2022-08-21T02:09:07;3.00;;;1.20;;
545;SDS011;259;53.304;9.816;2022-08-21T02:11:35;1.57;;;1.40;;
545;SDS011;259;53.304;9.816;2022-08-21T02:14:01;2.40;;;1.80;;
545;SDS011;259;53.304;9.816;2022-08-21T02:16:27;1.33;;;1.23;;
545;SDS011;259;53.304;9.816;2022-08-21T02:18:53;2.03;;;1.70;;
545;SDS011;259;53.304;9.816;2022-08-21T02:21:19;2.00;;;1.50;;
545;SDS011;259;53.304;9.816;2022-08-21T02:23:44;1.53;;;1.20;;
545;SDS011;259;53.304;9.816;2022-08-21T02:26:10;3.27;;;1.60;;
545;SDS011;259;53.304;9.816;2022-08-21T02:28:37;1.70;;;1.43;;
545;SDS011;259;53.304;9.816;2022-08-21T02:31:04;2.30;;;1.47;;
545;SDS011;259;53.304;9.816;2022-08-21T02:33:30;2.27;;;1.13;;
545;SDS011;259;53.304;9.816;2022-08-21T02:35:56;1.60;;;1.50;;
545;SDS011;259;53.304;9.816;2022-08-21T02:38:23;1.60;;;1.30;;
545;SDS011;259;53.304;9.816;2022-08-21T02:40:54;3.10;;;1.50;;
545;SDS011;259;53.304;9.816;2022-08-21T02:43:22;1.37;;;1.23;;
545;SDS011;259;53.304;9.816;2022-08-21T02:45:50;1.13;;;1.00;;
545;SDS011;259;53.304;9.816;2022-08-21T02:48:17;1.90;;;1.40;;
545;SDS011;259;53.304;9.816;2022-08-21T02:50:47;1.50;;;1.40;;
545;SDS011;259;53.304;9.816;2022-08-21T02:53:17;1.93;;;1.60;;
545;SDS011;259;53.304;9.816;2022-08-21T02:55:46;1.60;;;1.50;;
545;SDS011;259;53.304;9.816;2022-08-21T02:58:16;1.70;;;1.60;;
545;SDS011;259;53.304;9.816;2022-08-21T03:00:44;2.50;;;1.70;;
545;SDS011;259;53.304;9.816;2022-08-21T03:03:10;1.83;;;1.37;;
545;SDS011;259;53.304;9.816;2022-08-21T03:05:37;2.33;;;1.60;;
545;SDS011;259;53.304;9.816;2022-08-21T03:08:04;1.50;;;1.40;;
545;SDS011;259;53.304;9.816;2022-08-21T03:10:39;2.60;;;1.50;;
545;SDS011;259;53.304;9.816;2022-08-21T03:13:06;2.40;;;1.77;;
545;SDS011;259;53.304;9.816;2022-08-21T03:15:32;2.00;;;1.73;;
545;SDS011;259;53.304;9.816;2022-08-21T03:17:59;3.13;;;2.00;;
545;SDS011;259;53.304;9.816;2022-08-21T03:20:25;1.40;;;1.30;;
545;SDS011;259;53.304;9.816;2022-08-21T03:22:53;1.40;;;1.30;;
545;SDS011;259;53.304;9.816;2022-08-21T03:25:20;1.30;;;1.20;;
545;SDS011;259;53.304;9.816;2022-08-21T03:27:47;1.80;;;1.37;;
545;SDS011;259;53.304;9.816;2022-08-21T03:30:14;2.27;;;1.50;;
545;SDS011;259;53.304;9.816;2022-08-21T03:32:40;2.40;;;1.97;;
545;SDS011;259;53.304;9.816;2022-08-21T03:35:06;1.50;;;1.37;;
545;SDS011;259;53.304;9.816;2022-08-21T03:37:32;1.80;;;1.30;;
545;SDS011;259;53.304;9.816;2022-08-21T03:39:58;1.40;;;1.30;;
545;SDS011;259;53.304;9.816;2022-08-21T03:42:24;2.07;;;1.87;;
545;SDS011;259;53.304;9.816;2022-08-21T03:44:50;1.37;;;1.27;;
545;SDS011;259;53.304;9.816;2022-08-21T03:47:16;1.60;;;1.50;;
545;SDS011;259;53.304;9.816;2022-08-21T03:49:41;2.03;;;1.40;;
545;SDS011;259;53.304;9.816;2022-08-21T03:52:07;2.50;;;1.47;;
545;SDS011;259;53.304;9.816;2022-08-21T03:54:33;2.13;;;1.63;;
545;SDS011;259;53.304;9.816;2022-08-21T03:56:58;1.53;;;1.37;;
545;SDS011;259;53.304;9.816;2022-08-21T03:59:25;2.97;;;1.53;;
545;SDS011;259;53.304;9.816;2022-08-21T04:01:57;1.30;;;1.20;;
545;SDS011;259;53.304;9.816;2022-08-21T04:04:25;1.37;;;1.23;;
545;SDS011;259;53.304;9.816;2022-08-21T04:06:52;1.53;;;1.43;;
545;SDS011;259;53.304;9.816;2022-08-21T04:09:18;1.63;;;1.50;;
545;SDS011;259;53.304;9.816;2022-08-21T04:11:44;1.40;;;1.20;;
545;SDS011;259;53.304;9.816;2022-08-21T04:14:11;1.27;;;1.17;;
545;SDS011;259;53.304;9.816;2022-08-21T04:16:38;1.63;;;1.50;;
545;SDS011;259;53.304;9.816;2022-08-21T04:19:05;1.20;;;1.10;;
545;SDS011;259;53.304;9.816;2022-08-21T04:21:31;1.40;;;1.30;;
545;SDS011;259;53.304;9.816;2022-08-21T04:23:57;2.00;;;1.13;;
545;SDS011;259;53.304;9.816;2022-08-21T04:26:23;2.57;;;1.10;;
545;SDS011;259;53.304;9.816;2022-08-21T04:28:49;3.03;;;1.33;;
545;SDS011;259;53.304;9.816;2022-08-21T04:31:14;1.57;;;1.47;;
545;SDS011;259;53.304;9.816;2022-08-21T04:33:40;1.83;;;1.33;;
545;SDS011;259;53.304;9.816;2022-08-21T04:36:05;1.70;;;1.53;;
545;SDS011;259;53.304;9.816;2022-08-21T04:38:32;1.47;;;1.07;;
545;SDS011;259;53.304;9.816;2022-08-21T04:40:57;1.60;;;1.40;;
545;SDS011;259;53.304;9.816;2022-08-21T04:43:23;2.27;;;1.00;;
545;SDS011;259;53.304;9.816;2022-08-21T04:45:49;1.70;;;1.60;;
545;SDS011;259;53.304;9.816;2022-08-21T04:48:18;1.30;;;1.20;;
545;SDS011;259;53.304;9.816;2022-08-21T04:51:03;2.03;;;1.20;;
545;SDS011;259;53.304;9.816;2022-08-21T04:53:38;1.33;;;1.23;;
545;SDS011;259;53.304;9.816;2022-08-21T04:56:10;1.60;;;1.30;;
545;SDS011;259;53.304;9.816;2022-08-21T04:58:38;1.93;;;1.50;;
545;SDS011;259;53.304;9.816;2022-08-21T05:01:06;1.73;;;1.13;;
545;SDS011;259;53.304;9.816;2022-08-21T05:03:36;1.77;;;1.00;;
545;SDS011;259;53.304;9.816;2022-08-21T05:06:03;2.40;;;1.40;;
545;SDS011;259;53.304;9.816;2022-08-21T05:08:31;1.20;;;1.10;;
545;SDS011;259;53.304;9.816;2022-08-21T05:10:58;3.63;;;1.80;;
545;SDS011;259;53.304;9.816;2022-08-21T05:13:24;1.50;;;1.40;;
545;SDS011;259;53.304;9.816;2022-08-21T05:15:50;1.00;;;0.90;;
545;SDS011;259;53.304;9.816;2022-08-21T05:18:15;2.90;;;1.23;;
545;SDS011;259;53.304;9.816;2022-08-21T05:20:41;1.50;;;1.40;;
545;SDS011;259;53.304;9.816;2022-08-21T05:23:08;1.17;;;1.10;;
545;SDS011;259;53.304;9.816;2022-08-21T05:25:34;1.53;;;1.27;;
545;SDS011;259;53.304;9.816;2022-08-21T05:28:00;2.90;;;1.20;;
545;SDS011;259;53.304;9.816;2022-08-21T05:30:26;1.53;;;1.33;;
545;SDS011;259;53.304;9.816;2022-08-21T05:32:55;2.00;;;1.40;;
545;SDS011;259;53.304;9.816;2022-08-21T05:35:25;1.60;;;1.50;;
545;SDS011;259;53.304;9.816;2022-08-21T05:37:52;1.10;;;1.10;;
545;SDS011;259;53.304;9.816;2022-08-21T05:40:17;1.53;;;1.30;;
545;SDS011;259;53.304;9.816;2022-08-21T05:42:43;2.93;;;1.37;;
545;SDS011;259;53.304;9.816;2022-08-21T05:45:09;3.10;;;1.60;;
545;SDS011;259;53.304;9.816;2022-08-21T05:47:35;2.03;;;1.20;;
545;SDS011;259;53.304;9.816;2022-08-21T05:50:00;3.20;;;1.50;;
545;SDS011;259;53.304;9.816;2022-08-21T05:52:26;1.40;;;1.30;;
545;SDS011;259;53.304;9.816;2022-08-21T05:54:51;4.07;;;1.83;;
545;SDS011;259;53.304;9.816;2022-08-21T05:57:19;1.30;;;1.20;;
545;SDS011;259;53.304;9.816;2022-08-21T05:59:45;1.67;;;1.57;;
545;SDS011;259;53.304;9.816;2022-08-21T06:02:11;2.00;;;1.60;;
545;SDS011;259;53.304;9.816;2022-08-21T06:04:39;2.27;;;1.63;;
545;SDS011;259;53.304;9.816;2022-08-21T06:07:06;3.13;;;1.33;;
545;SDS011;259;53.304;9.816;2022-08-21T06:09:33;2.83;;;1.63;;
545;SDS011;259;53.304;9.816;2022-08-21T06:12:02;2.53;;;1.90;;
545;SDS011;259;53.304;9.816;2022-08-21T06:14:33;2.17;;;1.83;;
545;SDS011;259;53.304;9.816;2022-08-21T06:17:06;2.50;;;1.60;;
545;SDS011;259;53.304;9.816;2022-08-21T06:19:33;2.10;;;1.60;;
545;SDS011;259;53.304;9.816;2022-08-21T06:21:59;3.93;;;1.80;;
545;SDS011;259;53.304;9.816;2022-08-21T06:24:25;2.73;;;1.63;;
545;SDS011;259;53.304;9.816;2022-08-21T06:26:51;4.00;;;1.60;;
545;SDS011;259;53.304;9.816;2022-08-21T06:29:17;3.33;;;1.73;;
545;SDS011;259;53.304;9.816;2022-08-21T06:31:44;3.73;;;1.60;;
545;SDS011;259;53.304;9.816;2022-08-21T06:34:10;1.83;;;1.63;;
545;SDS011;259;53.304;9.816;2022-08-21T06:36:36;2.00;;;1.43;;
545;SDS011;259;53.304;9.816;2022-08-21T06:39:02;2.80;;;1.53;;
545;SDS011;259;53.304;9.816;2022-08-21T06:41:28;2.50;;;1.70;;
545;SDS011;259;53.304;9.816;2022-08-21T06:43:54;3.73;;;1.60;;
545;SDS011;259;53.304;9.816;2022-08-21T06:46:20;2.07;;;1.97;;
545;SDS011;259;53.304;9.816;2022-08-21T06:48:46;2.10;;;1.30;;
545;SDS011;259;53.304;9.816;2022-08-21T06:51:11;3.33;;;1.37;;
545;SDS011;259;53.304;9.816;2022-08-21T06:53:37;2.23;;;1.80;;
545;SDS011;259;53.304;9.816;2022-08-21T06:56:03;1.90;;;1.40;;
545;SDS011;259;53.304;9.816;2022-08-21T06:58:28;2.50;;;1.53;;
545;SDS011;259;53.304;9.816;2022-08-21T07:00:55;2.40;;;1.53;;
545;SDS011;259;53.304;9.816;2022-08-21T07:03:26;3.67;;;1.90;;
545;SDS011;259;53.304;9.816;2022-08-21T07:05:53;1.80;;;1.70;;
545;SDS011;259;53.304;9.816;2022-08-21T07:08:20;2.30;;;1.53;;
545;SDS011;259;53.304;9.816;2022-08-21T07:10:46;1.70;;;1.50;;
545;SDS011;259;53.304;9.816;2022-08-21T07:13:13;1.60;;;1.50;;
545;SDS011;259;53.304;9.816;2022-08-21T07:15:39;1.43;;;1.33;;
545;SDS011;259;53.304;9.816;2022-08-21T07:18:05;2.23;;;1.70;;
545;SDS011;259;53.304;9.816;2022-08-21T07:20:30;3.20;;;1.70;;
545;SDS011;259;53.304;9.816;2022-08-21T07:22:58;2.33;;;1.53;;
545;SDS011;259;53.304;9.816;2022-08-21T07:25:26;5.20;;;1.97;;
545;SDS011;259;53.304;9.816;2022-08-21T07:27:52;1.53;;;1.43;;
545;SDS011;259;53.304;9.816;2022-08-21T07:30:17;2.70;;;2.03;;
545;SDS011;259;53.304;9.816;2022-08-21T07:32:43;1.70;;;1.60;;
545;SDS011;259;53.304;9.816;2022-08-21T07:35:09;1.60;;;1.50;;
545;SDS011;259;53.304;9.816;2022-08-21T07:37:34;3.30;;;1.50;;
545;SDS011;259;53.304;9.816;2022-08-21T07:40:00;2.80;;;1.80;;
545;SDS011;259;53.304;9.816;2022-08-21T07:42:26;1.60;;;1.37;;
545;SDS011;259;53.304;9.816;2022-08-21T07:44:51;1.57;;;1.47;;
545;SDS011;259;53.304;9.816;2022-08-21T07:47:17;1.80;;;1.70;;
545;SDS011;259;53.304;9.816;2022-08-21T07:49:42;2.60;;;1.93;;
545;SDS011;259;53.304;9.816;2022-08-21T07:52:08;1.90;;;1.80;;
545;SDS011;259;53.304;9.816;2022-08-21T07:54:34;1.80;;;1.70;;
545;SDS011;259;53.304;9.816;2022-08-21T07:57:00;2.67;;;2.17;;
545;SDS011;259;53.304;9.816;2022-08-21T07:59:26;1.93;;;1.50;;
545;SDS011;259;53.304;9.816;2022-08-21T08:01:51;4.00;;;1.67;;
545;SDS011;259;53.304;9.816;2022-08-21T08:04:17;1.87;;;1.50;;
545;SDS011;259;53.304;9.816;2022-08-21T08:06:42;1.97;;;1.77;;
545;SDS011;259;53.304;9.816;2022-08-21T08:09:08;4.00;;;2.07;;
545;SDS011;259;53.304;9.816;2022-08-21T08:11:34;3.40;;;2.30;;
545;SDS011;259;53.304;9.816;2022-08-21T08:14:02;2.40;;;2.20;;
545;SDS011;259;53.304;9.816;2022-08-21T08:16:28;4.90;;;2.73;;
545;SDS011;259;53.304;9.816;2022-08-21T08:18:54;2.03;;;1.83;;
545;SDS011;259;53.304;9.816;2022-08-21T08:21:20;2.43;;;2.20;;
545;SDS011;259;53.304;9.816;2022-08-21T08:23:47;3.97;;;2.47;;
545;SDS011;259;53.304;9.816;2022-08-21T08:26:12;4.37;;;2.97;;
545;SDS011;259;53.304;9.816;2022-08-21T08:28:38;3.43;;;2.93;;
545;SDS011;259;53.304;9.816;2022-08-21T08:31:04;2.93;;;2.50;;
545;SDS011;259;53.304;9.816;2022-08-21T08:33:30;5.00;;;3.13;;
545;SDS011;259;53.304;9.816;2022-08-21T08:35:55;5.33;;;2.60;;
545;SDS011;259;53.304;9.816;2022-08-21T08:38:22;5.80;;;3.20;;
545;SDS011;259;53.304;9.816;2022-08-21T08:43:38;4.47;;;2.93;;
545;SDS011;259;53.304;9.816;2022-08-21T08:46:11;4.13;;;3.47;;
545;SDS011;259;53.304;9.816;2022-08-21T08:52:39;2.83;;;2.60;;
545;SDS011;259;53.304;9.816;2022-08-21T08:54:44;3.33;;;2.90;;
545;SDS011;259;53.304;9.816;2022-08-21T08:57:31;3.83;;;2.60;;
545;SDS011;259;53.304;9.816;2022-08-21T08:59:58;3.10;;;2.80;;
545;SDS011;259;53.304;9.816;2022-08-21T09:02:26;4.60;;;2.93;;
545;SDS011;259;53.304;9.816;2022-08-21T09:04:55;3.33;;;2.57;;
545;SDS011;259;53.304;9.816;2022-08-21T09:10:13;3.20;;;2.97;;
545;SDS011;259;53.304;9.816;2022-08-21T09:21:03;3.63;;;2.70;;
545;SDS011;259;53.304;9.816;2022-08-21T09:23:42;5.10;;;3.37;;
545;SDS011;259;53.304;9.816;2022-08-21T09:26:41;5.37;;;2.83;;
545;SDS011;259;53.304;9.816;2022-08-21T09:29:13;3.20;;;2.87;;
545;SDS011;259;53.304;9.816;2022-08-21T09:31:45;4.00;;;2.60;;
545;SDS011;259;53.304;9.816;2022-08-21T09:34:11;2.63;;;2.43;;
545;SDS011;259;53.304;9.816;2022-08-21T09:36:41;3.60;;;2.63;;
545;SDS011;259;53.304;9.816;2022-08-21T09:39:09;3.67;;;2.33;;
545;SDS011;259;53.304;9.816;2022-08-21T09:41:37;3.93;;;2.63;;
545;SDS011;259;53.304;9.816;2022-08-21T09:44:04;3.53;;;2.50;;
545;SDS011;259;53.304;9.816;2022-08-21T09:46:31;4.20;;;2.83;;
545;SDS011;259;53.304;9.816;2022-08-21T09:48:59;3.93;;;2.90;;
545;SDS011;259;53.304;9.816;2022-08-21T09:51:27;4.50;;;2.67;;
545;SDS011;259;53.304;9.816;2022-08-21T09:56:50;2.57;;;2.37;;
545;SDS011;259;53.304;9.816;2022-08-21T09:59:37;5.53;;;2.33;;
545;SDS011;259;53.304;9.816;2022-08-21T10:02:22;2.60;;;2.40;;
545;SDS011;259;53.304;9.816;2022-08-21T10:04:57;3.60;;;2.67;;
545;SDS011;259;53.304;9.816;2022-08-21T10:07:28;2.63;;;2.03;;
545;SDS011;259;53.304;9.816;2022-08-21T10:12:42;2.60;;;2.13;;
545;SDS011;259;53.304;9.816;2022-08-21T10:18:03;2.57;;;1.90;;
545;SDS011;259;53.304;9.816;2022-08-21T10:34:46;6.80;;;2.30;;
545;SDS011;259;53.304;9.816;2022-08-21T10:42:49;2.80;;;2.10;;
545;SDS011;259;53.304;9.816;2022-08-21T10:45:36;3.30;;;1.90;;
545;SDS011;259;53.304;9.816;2022-08-21T10:48:28;4.27;;;2.30;;
545;SDS011;259;53.304;9.816;2022-08-21T10:51:05;4.43;;;2.17;;
545;SDS011;259;53.304;9.816;2022-08-21T10:53:51;4.53;;;2.10;;
545;SDS011;259;53.304;9.816;2022-08-21T10:56:31;3.17;;;2.00;;
545;SDS011;259;53.304;9.816;2022-08-21T11:02:01;2.57;;;2.30;;
545;SDS011;259;53.304;9.816;2022-08-21T11:04:41;3.80;;;2.17;;
545;SDS011;259;53.304;9.816;2022-08-21T11:07:26;3.57;;;1.80;;
545;SDS011;259;53.304;9.816;2022-08-21T11:09:58;3.40;;;1.80;;
545;SDS011;259;53.304;9.816;2022-08-21T11:12:43;4.73;;;1.93;;
545;SDS011;259;53.304;9.816;2022-08-21T11:20:59;4.33;;;2.27;;
545;SDS011;259;53.304;9.816;2022-08-21T11:23:46;3.57;;;2.20;;
545;SDS011;259;53.304;9.816;2022-08-21T11:26:19;2.70;;;2.30;;
545;SDS011;259;53.304;9.816;2022-08-21T11:28:54;4.00;;;2.17;;
545;SDS011;259;53.304;9.816;2022-08-21T11:31:30;2.47;;;2.27;;
545;SDS011;259;53.304;9.816;2022-08-21T11:34:23;2.60;;;1.73;;
545;SDS011;259;53.304;9.816;2022-08-21T11:37:23;2.30;;;1.80;;
545;SDS011;259;53.304;9.816;2022-08-21T11:48:27;3.30;;;1.53;;
545;SDS011;259;53.304;9.816;2022-08-21T11:50:59;1.83;;;1.73;;
545;SDS011;259;53.304;9.816;2022-08-21T11:53:33;3.20;;;2.30;;
545;SDS011;259;53.304;9.816;2022-08-21T11:56:18;3.40;;;1.67;;
545;SDS011;259;53.304;9.816;2022-08-21T11:59:04;2.50;;;1.73;;
545;SDS011;259;53.304;9.816;2022-08-21T12:01:36;4.27;;;1.70;;
545;SDS011;259;53.304;9.816;2022-08-21T12:04:26;3.10;;;2.17;;
545;SDS011;259;53.304;9.816;2022-08-21T12:06:56;2.87;;;2.00;;
545;SDS011;259;53.304;9.816;2022-08-21T12:09:34;4.50;;;2.20;;
545;SDS011;259;53.304;9.816;2022-08-21T12:14:37;2.10;;;2.00;;
545;SDS011;259;53.304;9.816;2022-08-21T12:17:06;2.77;;;1.90;;
545;SDS011;259;53.304;9.816;2022-08-21T12:19:33;2.00;;;1.80;;
545;SDS011;259;53.304;9.816;2022-08-21T12:28:10;2.73;;;1.63;;
545;SDS011;259;53.304;9.816;2022-08-21T12:30:18;2.73;;;2.23;;
545;SDS011;259;53.304;9.816;2022-08-21T12:32:54;2.80;;;2.50;;
545;SDS011;259;53.304;9.816;2022-08-21T12:35:33;2.53;;;2.07;;
545;SDS011;259;53.304;9.816;2022-08-21T12:40:38;4.07;;;2.00;;
545;SDS011;259;53.304;9.816;2022-08-21T12:43:29;4.23;;;2.33;;
545;SDS011;259;53.304;9.816;2022-08-21T12:46:00;3.67;;;2.30;;
545;SDS011;259;53.304;9.816;2022-08-21T12:48:31;2.40;;;2.20;;
545;SDS011;259;53.304;9.816;2022-08-21T12:51:07;3.17;;;2.90;;
545;SDS011;259;53.304;9.816;2022-08-21T12:56:12;2.50;;;2.30;;
545;SDS011;259;53.304;9.816;2022-08-21T12:58:40;3.07;;;2.30;;
545;SDS011;259;53.304;9.816;2022-08-21T13:01:15;2.33;;;2.13;;
545;SDS011;259;53.304;9.816;2022-08-21T13:03:42;2.10;;;2.00;;
545;SDS011;259;53.304;9.816;2022-08-21T13:06:12;2.77;;;1.97;;
545;SDS011;259;53.304;9.816;2022-08-21T13:08:41;2.37;;;2.00;;
545;SDS011;259;53.304;9.816;2022-08-21T13:11:08;3.43;;;2.90;;
545;SDS011;259;53.304;9.816;2022-08-21T13:13:35;3.50;;;2.23;;
545;SDS011;259;53.304;9.816;2022-08-21T13:16:02;3.60;;;1.90;;
545;SDS011;259;53.304;9.816;2022-08-21T13:18:31;3.00;;;2.27;;
545;SDS011;259;53.304;9.816;2022-08-21T13:21:17;4.67;;;2.07;;
545;SDS011;259;53.304;9.816;2022-08-21T13:23:42;2.90;;;2.20;;
545;SDS011;259;53.304;9.816;2022-08-21T13:26:12;2.43;;;2.23;;
545;SDS011;259;53.304;9.816;2022-08-21T13:28:42;2.80;;;2.37;;
545;SDS011;259;53.304;9.816;2022-08-21T13:31:12;3.20;;;1.90;;
545;SDS011;259;53.304;9.816;2022-08-21T13:33:41;2.30;;;2.10;;
545;SDS011;259;53.304;9.816;2022-08-21T13:36:11;2.10;;;1.90;;
545;SDS011;259;53.304;9.816;2022-08-21T13:38:42;2.30;;;1.93;;
545;SDS011;259;53.304;9.816;2022-08-21T13:41:19;2.57;;;1.90;;
545;SDS011;259;53.304;9.816;2022-08-21T13:43:58;2.30;;;2.10;;
545;SDS011;259;53.304;9.816;2022-08-21T13:46:24;1.90;;;1.80;;
545;SDS011;259;53.304;9.816;2022-08-21T13:48:54;3.23;;;2.00;;
545;SDS011;259;53.304;9.816;2022-08-21T13:51:21;2.10;;;1.90;;
545;SDS011;259;53.304;9.816;2022-08-21T13:53:48;3.67;;;2.00;;
545;SDS011;259;53.304;9.816;2022-08-21T13:58:50;1.90;;;1.80;;
545;SDS011;259;53.304;9.816;2022-08-21T14:01:28;2.10;;;1.87;;
545;SDS011;259;53.304;9.816;2022-08-21T14:04:01;2.53;;;2.33;;
545;SDS011;259;53.304;9.816;2022-08-21T14:06:45;2.50;;;2.10;;
545;SDS011;259;53.304;9.816;2022-08-21T14:09:33;2.73;;;1.90;;
545;SDS011;259;53.304;9.816;2022-08-21T14:12:15;2.40;;;2.17;;
545;SDS011;259;53.304;9.816;2022-08-21T14:14:44;2.43;;;1.90;;
545;SDS011;259;53.304;9.816;2022-08-21T14:17:12;3.13;;;1.97;;
545;SDS011;259;53.304;9.816;2022-08-21T14:19:51;2.10;;;1.90;;
545;SDS011;259;53.304;9.816;2022-08-21T14:27:38;2.43;;;1.70;;
545;SDS011;259;53.304;9.816;2022-08-21T14:30:14;2.00;;;1.80;;
545;SDS011;259;53.304;9.816;2022-08-21T14:32:44;1.80;;;1.70;;
545;SDS011;259;53.304;9.816;2022-08-21T14:35:10;2.83;;;1.60;;
545;SDS011;259;53.304;9.816;2022-08-21T14:37:37;4.20;;;1.87;;
545;SDS011;259;53.304;9.816;2022-08-21T14:40:06;2.13;;;1.47;;
545;SDS011;259;53.304;9.816;2022-08-21T14:42:32;1.83;;;1.50;;
545;SDS011;259;53.304;9.816;2022-08-21T14:45:01;2.30;;;1.40;;
545;SDS011;259;53.304;9.816;2022-08-21T14:47:32;2.00;;;1.90;;
545;SDS011;259;53.304;9.816;2022-08-21T14:49:57;1.57;;;1.47;;
545;SDS011;259;53.304;9.816;2022-08-21T14:52:23;1.90;;;1.73;;
545;SDS011;259;53.304;9.816;2022-08-21T14:54:49;3.27;;;1.73;;
545;SDS011;259;53.304;9.816;2022-08-21T14:57:14;2.00;;;1.90;;
545;SDS011;259;53.304;9.816;2022-08-21T14:59:40;4.70;;;2.20;;
545;SDS011;259;53.304;9.816;2022-08-21T15:02:07;1.50;;;1.37;;
545;SDS011;259;53.304;9.816;2022-08-21T15:04:33;1.87;;;1.77;;
545;SDS011;259;53.304;9.816;2022-08-21T15:07:00;3.50;;;1.60;;
545;SDS011;259;53.304;9.816;2022-08-21T15:09:26;1.87;;;1.47;;
545;SDS011;259;53.304;9.816;2022-08-21T15:11:55;1.80;;;1.70;;
545;SDS011;259;53.304;9.816;2022-08-21T15:14:24;1.60;;;1.47;;
545;SDS011;259;53.304;9.816;2022-08-21T15:16:52;1.70;;;1.60;;
545;SDS011;259;53.304;9.816;2022-08-21T15:19:18;1.80;;;1.70;;
545;SDS011;259;53.304;9.816;2022-08-21T15:21:44;3.23;;;1.80;;
545;SDS011;259;53.304;9.816;2022-08-21T15:24:09;1.70;;;1.60;;
545;SDS011;259;53.304;9.816;2022-08-21T15:26:35;2.07;;;1.27;;
545;SDS011;259;53.304;9.816;2022-08-21T15:29:01;1.87;;;1.60;;
545;SDS011;259;53.304;9.816;2022-08-21T15:31:27;1.57;;;1.47;;
545;SDS011;259;53.304;9.816;2022-08-21T15:33:53;1.60;;;1.50;;
545;SDS011;259;53.304;9.816;2022-08-21T15:36:20;1.70;;;1.57;;
545;SDS011;259;53.304;9.816;2022-08-21T15:38:45;2.50;;;1.63;;
545;SDS011;259;53.304;9.816;2022-08-21T15:41:11;1.77;;;1.67;;
545;SDS011;259;53.304;9.816;2022-08-21T15:43:56;1.60;;;1.50;;
545;SDS011;259;53.304;9.816;2022-08-21T15:46:22;2.27;;;1.50;;
545;SDS011;259;53.304;9.816;2022-08-21T15:48:47;1.60;;;1.50;;
545;SDS011;259;53.304;9.816;2022-08-21T15:51:13;1.90;;;1.80;;
545;SDS011;259;53.304;9.816;2022-08-21T15:53:40;2.80;;;1.53;;
545;SDS011;259;53.304;9.816;2022-08-21T15:56:18;2.00;;;1.90;;
545;SDS011;259;53.304;9.816;2022-08-21T15:58:47;2.00;;;1.67;;
545;SDS011;259;53.304;9.816;2022-08-21T16:01:14;2.30;;;1.90;;
545;SDS011;259;53.304;9.816;2022-08-21T16:03:47;2.50;;;1.60;;
545;SDS011;259;53.304;9.816;2022-08-21T16:06:15;1.70;;;1.60;;
545;SDS011;259;53.304;9.816;2022-08-21T16:08:40;1.47;;;1.37;;
545;SDS011;259;53.304;9.816;2022-08-21T16:11:06;5.20;;;1.67;;
545;SDS011;259;53.304;9.816;2022-08-21T16:13:34;2.00;;;1.50;;
545;SDS011;259;53.304;9.816;2022-08-21T16:16:04;1.70;;;1.60;;
545;SDS011;259;53.304;9.816;2022-08-21T16:18:30;2.30;;;1.37;;
545;SDS011;259;53.304;9.816;2022-08-21T16:20:57;1.90;;;1.43;;
545;SDS011;259;53.304;9.816;2022-08-21T16:23:23;1.60;;;1.50;;
545;SDS011;259;53.304;9.816;2022-08-21T16:25:48;1.77;;;1.67;;
545;SDS011;259;53.304;9.816;2022-08-21T16:28:16;1.90;;;1.37;;
545;SDS011;259;53.304;9.816;2022-08-21T16:30:43;2.50;;;1.53;;
545;SDS011;259;53.304;9.816;2022-08-21T16:33:21;2.07;;;1.50;;
545;SDS011;259;53.304;9.816;2022-08-21T16:35:59;2.13;;;1.70;;
545;SDS011;259;53.304;9.816;2022-08-21T16:38:25;1.70;;;1.60;;
545;SDS011;259;53.304;9.816;2022-08-21T16:40:52;4.47;;;2.00;;
545;SDS011;259;53.304;9.816;2022-08-21T16:43:18;1.37;;;1.27;;
545;SDS011;259;53.304;9.816;2022-08-21T16:45:47;1.90;;;1.80;;
545;SDS011;259;53.304;9.816;2022-08-21T16:48:12;3.00;;;1.80;;
545;SDS011;259;53.304;9.816;2022-08-21T16:50:38;1.70;;;1.60;;
545;SDS011;259;53.304;9.816;2022-08-21T16:53:04;1.60;;;1.50;;
545;SDS011;259;53.304;9.816;2022-08-21T16:55:30;2.50;;;1.57;;
545;SDS011;259;53.304;9.816;2022-08-21T16:57:58;2.10;;;1.70;;
545;SDS011;259;53.304;9.816;2022-08-21T17:00:33;4.63;;;1.57;;
545;SDS011;259;53.304;9.816;2022-08-21T17:02:59;4.60;;;1.80;;
545;SDS011;259;53.304;9.816;2022-08-21T17:05:24;2.10;;;1.90;;
545;SDS011;259;53.304;9.816;2022-08-21T17:07:50;1.70;;;1.43;;
545;SDS011;259;53.304;9.816;2022-08-21T17:10:16;2.50;;;1.70;;
545;SDS011;259;53.304;9.816;2022-08-21T17:12:43;3.73;;;1.30;;
545;SDS011;259;53.304;9.816;2022-08-21T17:15:16;1.40;;;1.30;;
545;SDS011;259;53.304;9.816;2022-08-21T17:17:45;2.50;;;1.50;;
545;SDS011;259;53.304;9.816;2022-08-21T17:20:10;2.13;;;1.70;;
545;SDS011;259;53.304;9.816;2022-08-21T17:22:36;2.33;;;1.50;;